Pea Ridge, Arkansas
Current Conditions -  °F | °C
As of 1:57 PM on Monday 24 Nov 2014 (Local Time) from KROG Reporting Station
Clear Clear  
Wind Chill: 50°   Ceiling: Unl
Heat Index: 50°   Visibility: 10mi
Dew Point: 26°   Wind: 18mph
Humidity: 39%   Direction: 290°WNW
Pressure: 29.86"   Gusts: 26mph
Location:  36.45°N, 94.12°W
Report Text: KROG 241957Z 29016G23KT 10SM CLR 10/M03 A2986 RMK AO2 PK WND 28029/1910 SLP112 T01001033
Loading
Personal Weather Stations






























Interactive Weather Map New forecast layout! Learn more

10-Day Weather Forecast

Advertisements
Track Severe Weather on mobile